sensor_id;sensor_type;location;lat;lon;timestamp;temperature;humidity
26907;DHT22;14472;56.880;16.658;2022-09-17T00:00:37;14.40;1.00
26907;DHT22;14472;56.880;16.658;2022-09-17T00:03:04;14.40;1.00
26907;DHT22;14472;56.880;16.658;2022-09-17T00:05:30;14.40;1.00
26907;DHT22;14472;56.880;16.658;2022-09-17T00:07:56;14.40;1.00
26907;DHT22;14472;56.880;16.658;2022-09-17T00:10:22;14.40;1.00
26907;DHT22;14472;56.880;16.658;2022-09-17T00:12:49;14.40;1.00
26907;DHT22;14472;56.880;16.658;2022-09-17T00:15:15;14.40;1.00
26907;DHT22;14472;56.880;16.658;2022-09-17T00:17:42;14.40;1.00
26907;DHT22;14472;56.880;16.658;2022-09-17T00:20:08;14.40;1.00
26907;DHT22;14472;56.880;16.658;2022-09-17T00:22:38;14.40;1.00
26907;DHT22;14472;56.880;16.658;2022-09-17T00:25:06;14.40;1.00
26907;DHT22;14472;56.880;16.658;2022-09-17T00:27:33;14.40;1.00
26907;DHT22;14472;56.880;16.658;2022-09-17T00:29:58;14.40;1.00
26907;DHT22;14472;56.880;16.658;2022-09-17T00:32:24;14.50;1.00
26907;DHT22;14472;56.880;16.658;2022-09-17T00:34:51;14.40;1.00
26907;DHT22;14472;56.880;16.658;2022-09-17T00:37:19;14.40;1.00
26907;DHT22;14472;56.880;16.658;2022-09-17T00:39:45;14.50;1.00
26907;DHT22;14472;56.880;16.658;2022-09-17T00:42:12;14.40;1.00
26907;DHT22;14472;56.880;16.658;2022-09-17T00:44:45;14.40;1.00
26907;DHT22;14472;56.880;16.658;2022-09-17T00:47:32;14.40;1.00
26907;DHT22;14472;56.880;16.658;2022-09-17T00:50:15;14.40;1.00
26907;DHT22;14472;56.880;16.658;2022-09-17T00:52:51;14.40;1.00
26907;DHT22;14472;56.880;16.658;2022-09-17T00:58:24;14.40;1.00
26907;DHT22;14472;56.880;16.658;2022-09-17T01:00:50;14.40;1.00
26907;DHT22;14472;56.880;16.658;2022-09-17T01:03:15;14.40;1.00
26907;DHT22;14472;56.880;16.658;2022-09-17T01:06:02;14.40;1.00
26907;DHT22;14472;56.880;16.658;2022-09-17T01:09:04;14.40;1.00
26907;DHT22;14472;56.880;16.658;2022-09-17T01:25:40;14.50;1.00
26907;DHT22;14472;56.880;16.658;2022-09-17T01:33:45;14.40;1.00
26907;DHT22;14472;56.880;16.658;2022-09-17T01:36:44;14.40;1.00
26907;DHT22;14472;56.880;16.658;2022-09-17T01:39:27;14.40;1.00
26907;DHT22;14472;56.880;16.658;2022-09-17T01:42:17;14.40;1.00
26907;DHT22;14472;56.880;16.658;2022-09-17T01:47:43;14.40;1.00
26907;DHT22;14472;56.880;16.658;2022-09-17T01:50:13;14.40;1.00
26907;DHT22;14472;56.880;16.658;2022-09-17T01:52:43;14.40;1.00
26907;DHT22;14472;56.880;16.658;2022-09-17T01:55:14;14.30;1.00
26907;DHT22;14472;56.880;16.658;2022-09-17T01:57:41;14.30;1.00
26907;DHT22;14472;56.880;16.658;2022-09-17T02:00:10;14.30;1.00
26907;DHT22;14472;56.880;16.658;2022-09-17T02:03:06;14.30;1.00
26907;DHT22;14472;56.880;16.658;2022-09-17T02:05:34;14.30;1.00
26907;DHT22;14472;56.880;16.658;2022-09-17T02:08:27;14.40;1.00
26907;DHT22;14472;56.880;16.658;2022-09-17T02:11:08;14.40;1.00
26907;DHT22;14472;56.880;16.658;2022-09-17T02:16:21;14.40;1.00
26907;DHT22;14472;56.880;16.658;2022-09-17T02:18:55;14.40;1.00
26907;DHT22;14472;56.880;16.658;2022-09-17T02:21:36;14.30;1.00
26907;DHT22;14472;56.880;16.658;2022-09-17T02:24:18;14.30;1.00
26907;DHT22;14472;56.880;16.658;2022-09-17T02:27:16;14.30;1.00
26907;DHT22;14472;56.880;16.658;2022-09-17T02:29:44;14.30;1.00
26907;DHT22;14472;56.880;16.658;2022-09-17T02:32:11;14.30;1.00
26907;DHT22;14472;56.880;16.658;2022-09-17T02:34:38;14.30;1.00
26907;DHT22;14472;56.880;16.658;2022-09-17T02:37:05;14.30;1.00
26907;DHT22;14472;56.880;16.658;2022-09-17T02:39:31;14.30;1.00
26907;DHT22;14472;56.880;16.658;2022-09-17T02:47:32;14.20;1.00
26907;DHT22;14472;56.880;16.658;2022-09-17T02:52:59;14.20;1.00
26907;DHT22;14472;56.880;16.658;2022-09-17T02:55:40;14.30;1.00
26907;DHT22;14472;56.880;16.658;2022-09-17T02:58:23;14.20;1.00
26907;DHT22;14472;56.880;16.658;2022-09-17T03:00:51;14.30;1.00
26907;DHT22;14472;56.880;16.658;2022-09-17T03:03:30;14.20;1.00
26907;DHT22;14472;56.880;16.658;2022-09-17T03:05:56;14.20;1.00
26907;DHT22;14472;56.880;16.658;2022-09-17T03:08:33;14.20;1.00
26907;DHT22;14472;56.880;16.658;2022-09-17T03:11:01;14.30;1.00
26907;DHT22;14472;56.880;16.658;2022-09-17T03:13:27;14.30;1.00
26907;DHT22;14472;56.880;16.658;2022-09-17T03:15:52;14.20;1.00
26907;DHT22;14472;56.880;16.658;2022-09-17T03:18:18;14.20;1.00
26907;DHT22;14472;56.880;16.658;2022-09-17T03:20:44;14.20;1.00
26907;DHT22;14472;56.880;16.658;2022-09-17T03:23:11;14.20;1.00
26907;DHT22;14472;56.880;16.658;2022-09-17T03:25:36;14.20;1.00
26907;DHT22;14472;56.880;16.658;2022-09-17T03:28:02;14.20;1.00
26907;DHT22;14472;56.880;16.658;2022-09-17T03:30:28;14.20;1.00
26907;DHT22;14472;56.880;16.658;2022-09-17T03:32:53;14.20;1.00
26907;DHT22;14472;56.880;16.658;2022-09-17T03:35:19;14.20;1.00
26907;DHT22;14472;56.880;16.658;2022-09-17T03:37:45;14.20;1.00
26907;DHT22;14472;56.880;16.658;2022-09-17T03:40:12;14.20;1.00
26907;DHT22;14472;56.880;16.658;2022-09-17T03:42:37;14.20;1.00
26907;DHT22;14472;56.880;16.658;2022-09-17T03:45:04;14.10;1.00
26907;DHT22;14472;56.880;16.658;2022-09-17T03:47:30;14.10;1.00
26907;DHT22;14472;56.880;16.658;2022-09-17T03:49:56;14.10;1.00
26907;DHT22;14472;56.880;16.658;2022-09-17T03:52:22;14.10;1.00
26907;DHT22;14472;56.880;16.658;2022-09-17T03:54:47;14.10;1.00
26907;DHT22;14472;56.880;16.658;2022-09-17T03:57:14;14.00;1.00
26907;DHT22;14472;56.880;16.658;2022-09-17T03:59:39;14.00;1.00
26907;DHT22;14472;56.880;16.658;2022-09-17T04:02:05;14.00;1.00
26907;DHT22;14472;56.880;16.658;2022-09-17T04:04:31;14.00;1.00
26907;DHT22;14472;56.880;16.658;2022-09-17T04:06:57;14.00;1.00
26907;DHT22;14472;56.880;16.658;2022-09-17T04:09:22;14.00;1.00
26907;DHT22;14472;56.880;16.658;2022-09-17T04:11:48;14.00;1.00
26907;DHT22;14472;56.880;16.658;2022-09-17T04:14:14;14.00;1.00
26907;DHT22;14472;56.880;16.658;2022-09-17T04:16:39;13.90;1.00
26907;DHT22;14472;56.880;16.658;2022-09-17T04:19:05;13.90;1.00
26907;DHT22;14472;56.880;16.658;2022-09-17T04:21:31;13.90;1.00
26907;DHT22;14472;56.880;16.658;2022-09-17T04:23:57;13.90;1.00
26907;DHT22;14472;56.880;16.658;2022-09-17T04:26:22;13.90;1.00
26907;DHT22;14472;56.880;16.658;2022-09-17T04:28:48;13.90;1.00
26907;DHT22;14472;56.880;16.658;2022-09-17T04:31:14;13.90;1.00
26907;DHT22;14472;56.880;16.658;2022-09-17T04:33:39;13.90;1.00
26907;DHT22;14472;56.880;16.658;2022-09-17T04:36:05;13.90;1.00
26907;DHT22;14472;56.880;16.658;2022-09-17T04:38:31;13.90;1.00
26907;DHT22;14472;56.880;16.658;2022-09-17T04:40:58;13.80;1.00
26907;DHT22;14472;56.880;16.658;2022-09-17T04:43:24;13.90;1.00
26907;DHT22;14472;56.880;16.658;2022-09-17T04:45:49;13.90;1.00
26907;DHT22;14472;56.880;16.658;2022-09-17T04:48:15;13.90;1.00
26907;DHT22;14472;56.880;16.658;2022-09-17T04:50:41;13.80;1.00
26907;DHT22;14472;56.880;16.658;2022-09-17T04:53:07;13.80;1.00
26907;DHT22;14472;56.880;16.658;2022-09-17T04:55:33;13.80;1.00
26907;DHT22;14472;56.880;16.658;2022-09-17T04:57:58;13.80;1.00
26907;DHT22;14472;56.880;16.658;2022-09-17T05:00:24;13.80;1.00
26907;DHT22;14472;56.880;16.658;2022-09-17T05:02:52;13.80;1.00
26907;DHT22;14472;56.880;16.658;2022-09-17T05:05:18;13.80;1.00
26907;DHT22;14472;56.880;16.658;2022-09-17T05:07:44;13.80;1.00
26907;DHT22;14472;56.880;16.658;2022-09-17T05:10:11;13.70;1.00
26907;DHT22;14472;56.880;16.658;2022-09-17T05:12:37;13.60;1.00
26907;DHT22;14472;56.880;16.658;2022-09-17T05:15:06;13.70;1.00
26907;DHT22;14472;56.880;16.658;2022-09-17T05:17:32;13.60;1.00
26907;DHT22;14472;56.880;16.658;2022-09-17T05:19:57;13.70;1.00
26907;DHT22;14472;56.880;16.658;2022-09-17T05:22:23;13.60;1.00
26907;DHT22;14472;56.880;16.658;2022-09-17T05:24:49;13.60;1.00
26907;DHT22;14472;56.880;16.658;2022-09-17T05:27:15;13.60;1.00
26907;DHT22;14472;56.880;16.658;2022-09-17T05:29:40;13.60;1.00
26907;DHT22;14472;56.880;16.658;2022-09-17T05:32:06;13.60;1.00
26907;DHT22;14472;56.880;16.658;2022-09-17T05:34:32;13.60;1.00
26907;DHT22;14472;56.880;16.658;2022-09-17T05:36:58;13.70;1.00
26907;DHT22;14472;56.880;16.658;2022-09-17T05:39:24;13.60;1.00
26907;DHT22;14472;56.880;16.658;2022-09-17T05:41:51;13.60;1.00
26907;DHT22;14472;56.880;16.658;2022-09-17T05:44:17;13.60;1.00
26907;DHT22;14472;56.880;16.658;2022-09-17T05:46:43;13.60;1.00
26907;DHT22;14472;56.880;16.658;2022-09-17T05:49:09;13.70;1.00
26907;DHT22;14472;56.880;16.658;2022-09-17T05:51:35;13.60;1.00
26907;DHT22;14472;56.880;16.658;2022-09-17T05:54:01;13.60;1.00
26907;DHT22;14472;56.880;16.658;2022-09-17T05:56:26;13.60;1.00
26907;DHT22;14472;56.880;16.658;2022-09-17T05:58:56;13.70;1.00
26907;DHT22;14472;56.880;16.658;2022-09-17T06:01:22;13.70;1.00
26907;DHT22;14472;56.880;16.658;2022-09-17T06:03:48;13.70;1.00
26907;DHT22;14472;56.880;16.658;2022-09-17T06:06:13;13.70;1.00
26907;DHT22;14472;56.880;16.658;2022-09-17T06:08:39;13.70;1.00
26907;DHT22;14472;56.880;16.658;2022-09-17T06:11:05;13.70;1.00
26907;DHT22;14472;56.880;16.658;2022-09-17T06:13:32;13.70;1.00
26907;DHT22;14472;56.880;16.658;2022-09-17T06:15:59;13.60;1.00
26907;DHT22;14472;56.880;16.658;2022-09-17T06:18:26;13.60;1.00
26907;DHT22;14472;56.880;16.658;2022-09-17T06:20:54;13.70;1.00
26907;DHT22;14472;56.880;16.658;2022-09-17T06:23:20;13.70;1.00
26907;DHT22;14472;56.880;16.658;2022-09-17T06:25:55;13.70;1.00
26907;DHT22;14472;56.880;16.658;2022-09-17T06:28:21;13.70;1.00
26907;DHT22;14472;56.880;16.658;2022-09-17T06:30:47;13.70;1.00
26907;DHT22;14472;56.880;16.658;2022-09-17T06:33:13;13.80;1.00
26907;DHT22;14472;56.880;16.658;2022-09-17T06:35:39;13.80;1.00
26907;DHT22;14472;56.880;16.658;2022-09-17T06:38:05;13.80;1.00
26907;DHT22;14472;56.880;16.658;2022-09-17T06:40:31;13.90;1.00
26907;DHT22;14472;56.880;16.658;2022-09-17T06:42:57;13.80;1.00
26907;DHT22;14472;56.880;16.658;2022-09-17T06:45:26;13.80;1.00
26907;DHT22;14472;56.880;16.658;2022-09-17T06:47:52;13.80;1.00
26907;DHT22;14472;56.880;16.658;2022-09-17T06:50:18;13.90;1.00
26907;DHT22;14472;56.880;16.658;2022-09-17T06:52:52;13.90;1.00
26907;DHT22;14472;56.880;16.658;2022-09-17T06:55:18;13.90;1.00
26907;DHT22;14472;56.880;16.658;2022-09-17T06:57:44;14.00;1.00
26907;DHT22;14472;56.880;16.658;2022-09-17T07:00:11;14.00;1.00
26907;DHT22;14472;56.880;16.658;2022-09-17T07:02:37;14.10;1.00
26907;DHT22;14472;56.880;16.658;2022-09-17T07:05:03;14.10;1.00
26907;DHT22;14472;56.880;16.658;2022-09-17T07:07:29;14.10;1.00
26907;DHT22;14472;56.880;16.658;2022-09-17T07:09:55;14.20;1.00
26907;DHT22;14472;56.880;16.658;2022-09-17T07:12:21;14.10;1.00
26907;DHT22;14472;56.880;16.658;2022-09-17T07:14:46;14.20;1.00
26907;DHT22;14472;56.880;16.658;2022-09-17T07:17:13;14.20;1.00
26907;DHT22;14472;56.880;16.658;2022-09-17T07:19:39;14.30;1.00
26907;DHT22;14472;56.880;16.658;2022-09-17T07:22:05;14.30;1.00
26907;DHT22;14472;56.880;16.658;2022-09-17T07:24:31;14.30;1.00
26907;DHT22;14472;56.880;16.658;2022-09-17T07:26:57;14.40;1.00
26907;DHT22;14472;56.880;16.658;2022-09-17T07:29:22;14.40;1.00
26907;DHT22;14472;56.880;16.658;2022-09-17T07:31:54;14.40;1.00
26907;DHT22;14472;56.880;16.658;2022-09-17T07:34:20;14.50;1.00
26907;DHT22;14472;56.880;16.658;2022-09-17T07:36:46;14.50;1.00
26907;DHT22;14472;56.880;16.658;2022-09-17T07:39:12;14.60;1.00
26907;DHT22;14472;56.880;16.658;2022-09-17T07:41:39;14.70;1.00
26907;DHT22;14472;56.880;16.658;2022-09-17T07:44:04;14.80;1.00
26907;DHT22;14472;56.880;16.658;2022-09-17T07:46:34;14.80;1.00
26907;DHT22;14472;56.880;16.658;2022-09-17T07:49:00;14.90;1.00
26907;DHT22;14472;56.880;16.658;2022-09-17T07:51:26;14.90;1.00
26907;DHT22;14472;56.880;16.658;2022-09-17T07:53:54;15.00;1.00
26907;DHT22;14472;56.880;16.658;2022-09-17T07:56:21;15.10;1.00
26907;DHT22;14472;56.880;16.658;2022-09-17T07:58:46;15.20;1.00
26907;DHT22;14472;56.880;16.658;2022-09-17T08:01:14;15.30;1.00
26907;DHT22;14472;56.880;16.658;2022-09-17T08:03:41;15.30;1.00
26907;DHT22;14472;56.880;16.658;2022-09-17T08:06:10;15.50;1.00
26907;DHT22;14472;56.880;16.658;2022-09-17T08:08:37;15.50;1.00
26907;DHT22;14472;56.880;16.658;2022-09-17T08:11:09;15.60;1.00
26907;DHT22;14472;56.880;16.658;2022-09-17T08:13:35;15.70;1.00
26907;DHT22;14472;56.880;16.658;2022-09-17T08:16:03;15.80;1.00
26907;DHT22;14472;56.880;16.658;2022-09-17T08:18:30;15.90;1.00
26907;DHT22;14472;56.880;16.658;2022-09-17T08:20:59;16.10;1.00
26907;DHT22;14472;56.880;16.658;2022-09-17T08:23:26;16.10;1.00
26907;DHT22;14472;56.880;16.658;2022-09-17T08:25:54;16.20;1.00
26907;DHT22;14472;56.880;16.658;2022-09-17T08:28:21;16.30;1.00
26907;DHT22;14472;56.880;16.658;2022-09-17T08:30:48;16.40;1.00
26907;DHT22;14472;56.880;16.658;2022-09-17T08:33:15;16.50;1.00
26907;DHT22;14472;56.880;16.658;2022-09-17T08:35:40;16.60;1.00
26907;DHT22;14472;56.880;16.658;2022-09-17T08:38:06;16.70;1.00
26907;DHT22;14472;56.880;16.658;2022-09-17T08:40:39;16.90;1.00
26907;DHT22;14472;56.880;16.658;2022-09-17T08:43:14;16.90;1.00
26907;DHT22;14472;56.880;16.658;2022-09-17T08:45:42;17.10;1.00
26907;DHT22;14472;56.880;16.658;2022-09-17T08:48:10;17.20;1.00
26907;DHT22;14472;56.880;16.658;2022-09-17T08:50:39;17.30;1.00
26907;DHT22;14472;56.880;16.658;2022-09-17T08:56:12;17.40;1.00
26907;DHT22;14472;56.880;16.658;2022-09-17T08:59:53;17.50;1.00
26907;DHT22;14472;56.880;16.658;2022-09-17T09:07:09;17.80;1.00
26907;DHT22;14472;56.880;16.658;2022-09-17T09:09:50;17.90;1.00
26907;DHT22;14472;56.880;16.658;2022-09-17T09:12:31;18.00;1.00
26907;DHT22;14472;56.880;16.658;2022-09-17T09:15:01;18.00;1.00
26907;DHT22;14472;56.880;16.658;2022-09-17T09:17:37;18.00;1.00
26907;DHT22;14472;56.880;16.658;2022-09-17T09:20:18;18.10;1.00
26907;DHT22;14472;56.880;16.658;2022-09-17T09:22:49;18.20;1.00
26907;DHT22;14472;56.880;16.658;2022-09-17T09:25:24;18.20;1.00
26907;DHT22;14472;56.880;16.658;2022-09-17T09:30:58;18.40;1.00
26907;DHT22;14472;56.880;16.658;2022-09-17T09:33:34;18.50;1.00
26907;DHT22;14472;56.880;16.658;2022-09-17T09:36:04;18.30;1.00
26907;DHT22;14472;56.880;16.658;2022-09-17T09:38:56;18.50;1.00
26907;DHT22;14472;56.880;16.658;2022-09-17T09:41:28;18.50;1.00
26907;DHT22;14472;56.880;16.658;2022-09-17T09:44:08;18.50;1.00
26907;DHT22;14472;56.880;16.658;2022-09-17T09:46:53;18.50;1.00
26907;DHT22;14472;56.880;16.658;2022-09-17T09:57:42;18.50;1.00
26907;DHT22;14472;56.880;16.658;2022-09-17T10:00:30;18.50;1.00
26907;DHT22;14472;56.880;16.658;2022-09-17T10:03:14;18.70;1.00
26907;DHT22;14472;56.880;16.658;2022-09-17T10:08:28;18.70;1.00
26907;DHT22;14472;56.880;16.658;2022-09-17T10:13:27;18.90;1.00
26907;DHT22;14472;56.880;16.658;2022-09-17T10:15:53;18.80;1.00
26907;DHT22;14472;56.880;16.658;2022-09-17T10:18:24;18.90;1.00
26907;DHT22;14472;56.880;16.658;2022-09-17T10:23:18;19.00;1.00
26907;DHT22;14472;56.880;16.658;2022-09-17T10:25:44;19.00;1.00
26907;DHT22;14472;56.880;16.658;2022-09-17T10:31:03;19.10;1.00
26907;DHT22;14472;56.880;16.658;2022-09-17T10:33:33;19.10;1.00
26907;DHT22;14472;56.880;16.658;2022-09-17T10:38:28;19.10;1.00
26907;DHT22;14472;56.880;16.658;2022-09-17T10:41:09;19.10;1.00
26907;DHT22;14472;56.880;16.658;2022-09-17T10:43:35;19.10;1.00
26907;DHT22;14472;56.880;16.658;2022-09-17T10:46:01;19.20;1.00
26907;DHT22;14472;56.880;16.658;2022-09-17T10:48:32;19.30;1.00
26907;DHT22;14472;56.880;16.658;2022-09-17T10:50:59;19.30;1.00
26907;DHT22;14472;56.880;16.658;2022-09-17T10:53:27;19.30;1.00
26907;DHT22;14472;56.880;16.658;2022-09-17T11:01:14;19.40;1.00
26907;DHT22;14472;56.880;16.658;2022-09-17T11:15:51;19.50;1.00
26907;DHT22;14472;56.880;16.658;2022-09-17T11:18:36;19.50;1.00
26907;DHT22;14472;56.880;16.658;2022-09-17T11:29:32;19.50;1.00
26907;DHT22;14472;56.880;16.658;2022-09-17T11:35:08;19.50;1.00
26907;DHT22;14472;56.880;16.658;2022-09-17T11:40:47;19.60;1.00
26907;DHT22;14472;56.880;16.658;2022-09-17T11:43:25;19.50;1.00
26907;DHT22;14472;56.880;16.658;2022-09-17T11:48:26;19.60;1.00
26907;DHT22;14472;56.880;16.658;2022-09-17T11:51:03;19.60;1.00
26907;DHT22;14472;56.880;16.658;2022-09-17T11:53:42;19.70;1.00
26907;DHT22;14472;56.880;16.658;2022-09-17T11:56:26;19.80;1.00
26907;DHT22;14472;56.880;16.658;2022-09-17T11:59:22;19.80;1.00
26907;DHT22;14472;56.880;16.658;2022-09-17T12:01:52;19.90;1.00
26907;DHT22;14472;56.880;16.658;2022-09-17T12:12:30;20.00;1.00
26907;DHT22;14472;56.880;16.658;2022-09-17T12:15:03;20.10;1.00
26907;DHT22;14472;56.880;16.658;2022-09-17T12:17:37;20.10;1.00
26907;DHT22;14472;56.880;16.658;2022-09-17T12:20:28;20.10;1.00
26907;DHT22;14472;56.880;16.658;2022-09-17T12:22:53;20.20;1.00
26907;DHT22;14472;56.880;16.658;2022-09-17T12:25:21;20.20;1.00
26907;DHT22;14472;56.880;16.658;2022-09-17T12:28:12;20.20;1.00
26907;DHT22;14472;56.880;16.658;2022-09-17T12:30:52;20.10;1.00
26907;DHT22;14472;56.880;16.658;2022-09-17T12:33:34;20.00;1.00
26907;DHT22;14472;56.880;16.658;2022-09-17T12:53:28;19.60;1.00
26907;DHT22;14472;56.880;16.658;2022-09-17T12:59:09;19.50;1.00
26907;DHT22;14472;56.880;16.658;2022-09-17T13:12:52;19.30;1.00
26907;DHT22;14472;56.880;16.658;2022-09-17T13:21:16;19.20;1.00
26907;DHT22;14472;56.880;16.658;2022-09-17T13:23:47;19.20;1.00
26907;DHT22;14472;56.880;16.658;2022-09-17T13:26:17;19.10;1.00
26907;DHT22;14472;56.880;16.658;2022-09-17T13:28:44;19.10;1.00
26907;DHT22;14472;56.880;16.658;2022-09-17T13:31:11;19.20;1.00
26907;DHT22;14472;56.880;16.658;2022-09-17T13:34:00;19.20;1.00
26907;DHT22;14472;56.880;16.658;2022-09-17T13:39:02;19.20;1.00
26907;DHT22;14472;56.880;16.658;2022-09-17T13:41:29;19.30;1.00
26907;DHT22;14472;56.880;16.658;2022-09-17T13:43:56;19.30;1.00
26907;DHT22;14472;56.880;16.658;2022-09-17T13:46:24;19.30;1.00
26907;DHT22;14472;56.880;16.658;2022-09-17T13:48:56;19.30;1.00
26907;DHT22;14472;56.880;16.658;2022-09-17T13:53:56;19.30;1.00
26907;DHT22;14472;56.880;16.658;2022-09-17T13:56:42;19.30;1.00
26907;DHT22;14472;56.880;16.658;2022-09-17T13:59:24;19.20;1.00
26907;DHT22;14472;56.880;16.658;2022-09-17T14:01:56;19.30;1.00
26907;DHT22;14472;56.880;16.658;2022-09-17T14:09:56;19.40;1.00
26907;DHT22;14472;56.880;16.658;2022-09-17T14:21:05;19.40;1.00
26907;DHT22;14472;56.880;16.658;2022-09-17T14:23:33;19.40;1.00
26907;DHT22;14472;56.880;16.658;2022-09-17T14:26:01;19.40;1.00
26907;DHT22;14472;56.880;16.658;2022-09-17T14:28:38;19.40;1.00
26907;DHT22;14472;56.880;16.658;2022-09-17T14:31:17;19.40;1.00
26907;DHT22;14472;56.880;16.658;2022-09-17T14:33:45;19.40;1.00
26907;DHT22;14472;56.880;16.658;2022-09-17T14:36:15;19.40;1.00
26907;DHT22;14472;56.880;16.658;2022-09-17T14:38:51;19.40;1.00
26907;DHT22;14472;56.880;16.658;2022-09-17T14:41:34;19.40;1.00
26907;DHT22;14472;56.880;16.658;2022-09-17T14:44:24;19.40;1.00
26907;DHT22;14472;56.880;16.658;2022-09-17T14:46:59;19.30;1.00
26907;DHT22;14472;56.880;16.658;2022-09-17T14:49:27;19.20;1.00
26907;DHT22;14472;56.880;16.658;2022-09-17T14:51:55;19.20;1.00
26907;DHT22;14472;56.880;16.658;2022-09-17T14:54:26;19.20;1.00
26907;DHT22;14472;56.880;16.658;2022-09-17T14:56:55;19.10;1.00
26907;DHT22;14472;56.880;16.658;2022-09-17T15:01:50;19.00;1.00
26907;DHT22;14472;56.880;16.658;2022-09-17T15:04:25;19.00;1.00
26907;DHT22;14472;56.880;16.658;2022-09-17T15:06:52;19.00;1.00
26907;DHT22;14472;56.880;16.658;2022-09-17T15:09:25;19.00;1.00
26907;DHT22;14472;56.880;16.658;2022-09-17T15:11:57;19.00;1.00
26907;DHT22;14472;56.880;16.658;2022-09-17T15:14:28;19.00;1.00
26907;DHT22;14472;56.880;16.658;2022-09-17T15:16:56;19.00;1.00
26907;DHT22;14472;56.880;16.658;2022-09-17T15:19:44;19.00;1.00
26907;DHT22;14472;56.880;16.658;2022-09-17T15:27:34;18.90;1.00
26907;DHT22;14472;56.880;16.658;2022-09-17T15:30:08;18.80;1.00
26907;DHT22;14472;56.880;16.658;2022-09-17T15:32:36;18.80;1.00
26907;DHT22;14472;56.880;16.658;2022-09-17T15:37:52;18.80;1.00
26907;DHT22;14472;56.880;16.658;2022-09-17T15:40:30;18.80;1.00
26907;DHT22;14472;56.880;16.658;2022-09-17T15:45:32;18.80;1.00
26907;DHT22;14472;56.880;16.658;2022-09-17T15:48:04;18.70;1.00
26907;DHT22;14472;56.880;16.658;2022-09-17T15:50:31;18.70;1.00
26907;DHT22;14472;56.880;16.658;2022-09-17T15:58:21;18.60;1.00
26907;DHT22;14472;56.880;16.658;2022-09-17T16:08:50;18.40;1.00
26907;DHT22;14472;56.880;16.658;2022-09-17T16:11:18;18.40;1.00
26907;DHT22;14472;56.880;16.658;2022-09-17T16:13:48;18.40;1.00
26907;DHT22;14472;56.880;16.658;2022-09-17T16:16:29;18.30;1.00
26907;DHT22;14472;56.880;16.658;2022-09-17T16:18:57;18.20;1.00
26907;DHT22;14472;56.880;16.658;2022-09-17T16:21:22;18.20;1.00
26907;DHT22;14472;56.880;16.658;2022-09-17T16:23:49;18.20;1.00
26907;DHT22;14472;56.880;16.658;2022-09-17T16:26:18;18.10;1.00
26907;DHT22;14472;56.880;16.658;2022-09-17T16:28:46;18.10;1.00
26907;DHT22;14472;56.880;16.658;2022-09-17T16:31:13;18.10;1.00
26907;DHT22;14472;56.880;16.658;2022-09-17T16:33:40;18.10;1.00
26907;DHT22;14472;56.880;16.658;2022-09-17T16:36:06;18.10;1.00
26907;DHT22;14472;56.880;16.658;2022-09-17T16:38:32;18.10;1.00
26907;DHT22;14472;56.880;16.658;2022-09-17T16:40:57;18.00;1.00
26907;DHT22;14472;56.880;16.658;2022-09-17T16:43:23;18.00;1.00
26907;DHT22;14472;56.880;16.658;2022-09-17T16:45:59;18.00;1.00
26907;DHT22;14472;56.880;16.658;2022-09-17T16:48:25;18.00;1.00
26907;DHT22;14472;56.880;16.658;2022-09-17T16:50:51;18.00;1.00
26907;DHT22;14472;56.880;16.658;2022-09-17T16:53:17;18.00;1.00
26907;DHT22;14472;56.880;16.658;2022-09-17T16:55:42;18.00;1.00
26907;DHT22;14472;56.880;16.658;2022-09-17T16:58:09;18.00;1.00
26907;DHT22;14472;56.880;16.658;2022-09-17T17:00:35;17.90;1.00
26907;DHT22;14472;56.880;16.658;2022-09-17T17:03:02;17.90;1.00
26907;DHT22;14472;56.880;16.658;2022-09-17T17:05:28;17.90;1.00
26907;DHT22;14472;56.880;16.658;2022-09-17T17:07:55;17.80;1.00
26907;DHT22;14472;56.880;16.658;2022-09-17T17:10:22;17.80;1.00
26907;DHT22;14472;56.880;16.658;2022-09-17T17:12:48;17.80;1.00
26907;DHT22;14472;56.880;16.658;2022-09-17T17:15:15;17.80;1.00
26907;DHT22;14472;56.880;16.658;2022-09-17T17:17:41;17.80;1.00
26907;DHT22;14472;56.880;16.658;2022-09-17T17:20:08;17.80;1.00
26907;DHT22;14472;56.880;16.658;2022-09-17T17:22:35;17.80;1.00
26907;DHT22;14472;56.880;16.658;2022-09-17T17:25:03;17.70;1.00
26907;DHT22;14472;56.880;16.658;2022-09-17T17:27:30;17.70;1.00
26907;DHT22;14472;56.880;16.658;2022-09-17T17:29:55;17.70;1.00
26907;DHT22;14472;56.880;16.658;2022-09-17T17:32:21;17.70;1.00
26907;DHT22;14472;56.880;16.658;2022-09-17T17:34:48;17.70;1.00
26907;DHT22;14472;56.880;16.658;2022-09-17T17:37:17;17.70;1.00
26907;DHT22;14472;56.880;16.658;2022-09-17T17:39:43;17.70;1.00
26907;DHT22;14472;56.880;16.658;2022-09-17T17:42:08;17.70;1.00
26907;DHT22;14472;56.880;16.658;2022-09-17T17:44:34;17.60;1.00
26907;DHT22;14472;56.880;16.658;2022-09-17T17:47:00;17.60;1.00
26907;DHT22;14472;56.880;16.658;2022-09-17T17:49:26;17.60;1.00
26907;DHT22;14472;56.880;16.658;2022-09-17T17:51:52;17.50;1.00
26907;DHT22;14472;56.880;16.658;2022-09-17T17:54:19;17.60;1.00
26907;DHT22;14472;56.880;16.658;2022-09-17T17:56:46;17.50;1.00
26907;DHT22;14472;56.880;16.658;2022-09-17T17:59:12;17.50;1.00
26907;DHT22;14472;56.880;16.658;2022-09-17T18:01:37;17.60;1.00
26907;DHT22;14472;56.880;16.658;2022-09-17T18:04:04;17.50;1.00
26907;DHT22;14472;56.880;16.658;2022-09-17T18:06:32;17.50;1.00
26907;DHT22;14472;56.880;16.658;2022-09-17T18:08:59;17.50;1.00
26907;DHT22;14472;56.880;16.658;2022-09-17T18:11:26;17.50;1.00
26907;DHT22;14472;56.880;16.658;2022-09-17T18:13:53;17.50;1.00
26907;DHT22;14472;56.880;16.658;2022-09-17T18:16:20;17.50;1.00
26907;DHT22;14472;56.880;16.658;2022-09-17T18:18:46;17.40;1.00
26907;DHT22;14472;56.880;16.658;2022-09-17T18:21:22;17.40;1.00
26907;DHT22;14472;56.880;16.658;2022-09-17T18:23:49;17.40;1.00
26907;DHT22;14472;56.880;16.658;2022-09-17T18:26:24;17.40;1.00
26907;DHT22;14472;56.880;16.658;2022-09-17T18:28:50;17.40;1.00
26907;DHT22;14472;56.880;16.658;2022-09-17T18:31:24;17.40;1.00
26907;DHT22;14472;56.880;16.658;2022-09-17T18:34:06;17.40;1.00
26907;DHT22;14472;56.880;16.658;2022-09-17T18:36:33;17.30;1.00
26907;DHT22;14472;56.880;16.658;2022-09-17T18:39:00;17.30;1.00
26907;DHT22;14472;56.880;16.658;2022-09-17T18:41:37;17.30;1.00
26907;DHT22;14472;56.880;16.658;2022-09-17T18:44:08;17.30;1.00
26907;DHT22;14472;56.880;16.658;2022-09-17T18:46:34;17.20;1.00
26907;DHT22;14472;56.880;16.658;2022-09-17T18:49:00;17.20;1.00
26907;DHT22;14472;56.880;16.658;2022-09-17T18:51:26;17.20;1.00
26907;DHT22;14472;56.880;16.658;2022-09-17T18:53:52;17.20;1.00
26907;DHT22;14472;56.880;16.658;2022-09-17T18:56:24;17.10;1.00
26907;DHT22;14472;56.880;16.658;2022-09-17T18:58:52;17.10;1.00
26907;DHT22;14472;56.880;16.658;2022-09-17T19:01:20;17.10;1.00